Latest METARs, TAFs and NOTAMs for MMTO


---------------------------------------------------------------------------
	(OBSERVATIONS)
MMTO 220746Z 00000KT 7SM  SKC 04/01 A3038 RMK HZY=
MMTO 220646Z 00000KT 7SM  SKC 04/00 A3039 RMK HZY=
MMTO 220546Z 21003KT 7SM  SKC 06/01 A3038 RMK SLP146 52005 903=
---------------------------------------------------------------------------
	(TERMINAL AREA FORECAST)
MMTO 220423Z 2206/2312 33004KT P6SM SKC TX20/2221Z TN01/2212Z
    FM221100 00000KT 5SM HZ SKC
    FM221800 25012KT P6SM SCT015 SCT200
    BECMG 2305/2307 08006KT SKC=
---------------------------------------------------------------------------
	(NOTAMS)


MMTO A0520/16 CHANGED NAME OF THE FOLLOWING REPORTING POINTS:
    LIMBO TO TAKUG NOGAL TO LENEG PUBLISHED IN CHART AD-MMTO-LL-1,
    AD-MMTO-LL-4, AD-MMTO-LL-7-RNAV/LL-8-RNAV PUBLISHED IN ANEX
    TO SUP 06/12 DATE 21-SEP-2012 MEXICO AIP. 04 FEB 08:00 2016
    UNTIL PERM. CREATED: 23 JAN 00:17 2016

MMTO A7267/16 RWY 15/33 CLSD. 1800/1900 ONLY DAYS TUE, 13 DEC
    18:00 2016 UNTIL 28 MAR 19:00 2017. CREATED: 05 DEC 19:55
    2016

---------------------------------------------------------------------------